createdAt,value
2019-02-04T00:00:41.114Z,2.46
2019-02-04T00:03:12.799Z,2.45
2019-02-04T00:05:43.107Z,2.40
2019-02-04T00:08:13.610Z,2.34
2019-02-04T00:10:45.768Z,2.32
2019-02-04T00:13:17.002Z,2.27
2019-02-04T00:15:47.623Z,2.21
2019-02-04T00:18:18.179Z,2.18
2019-02-04T00:20:48.476Z,2.14
2019-02-04T00:23:22.567Z,2.14
2019-02-04T00:25:53.102Z,2.09
2019-02-04T00:28:23.439Z,2.04
2019-02-04T00:30:53.878Z,2.01
2019-02-04T00:33:24.779Z,1.94
2019-02-04T00:35:56.031Z,1.91
2019-02-04T00:38:28.857Z,1.93
2019-02-04T00:40:59.645Z,1.91
2019-02-04T00:43:29.879Z,1.89
2019-02-04T00:46:00.423Z,1.90
2019-02-04T00:48:31.513Z,1.89
2019-02-04T00:51:02.139Z,1.87
2019-02-04T00:53:35.330Z,1.82
2019-02-04T00:56:06.429Z,1.81
2019-02-04T00:58:36.683Z,1.79
2019-02-04T01:01:10.177Z,1.79
2019-02-04T01:03:41.049Z,1.21
2019-02-04T01:06:12.897Z,1.76
2019-02-04T01:08:43.371Z,1.76
2019-02-04T01:11:14.262Z,1.76
2019-02-04T01:13:44.506Z,1.14
2019-02-04T01:16:14.672Z,1.70
2019-02-04T01:18:44.898Z,1.70
2019-02-04T01:21:14.840Z,1.66
2019-02-04T01:23:44.901Z,1.66
2019-02-04T01:26:15.793Z,1.66
2019-02-04T01:28:45.799Z,1.67
2019-02-04T01:31:17.191Z,1.68
2019-02-04T01:33:47.359Z,1.68
2019-02-04T01:36:17.760Z,1.67
2019-02-04T01:38:47.728Z,1.63
2019-02-04T01:41:18.049Z,1.61
2019-02-04T01:43:47.858Z,1.59
2019-02-04T01:46:18.405Z,1.56
2019-02-04T01:48:48.623Z,1.48
2019-02-04T01:51:18.519Z,1.50
2019-02-04T01:53:48.848Z,1.49
2019-02-04T01:56:19.275Z,1.51
2019-02-04T01:58:49.146Z,1.51
2019-02-04T02:01:18.989Z,1.49
2019-02-04T02:03:49.651Z,1.46
2019-02-04T02:06:20.058Z,1.45
2019-02-04T02:08:49.898Z,1.40
2019-02-04T02:11:20.444Z,1.35
2019-02-04T02:13:50.276Z,1.35
2019-02-04T02:16:20.420Z,1.29
2019-02-04T02:18:50.602Z,1.29
2019-02-04T02:21:20.684Z,1.28
2019-02-04T02:23:50.523Z,1.21
2019-02-04T02:26:20.459Z,1.19
2019-02-04T02:28:50.324Z,1.15
2019-02-04T02:31:20.438Z,1.11
2019-02-04T02:33:50.523Z,1.08
2019-02-04T02:36:20.435Z,1.14
2019-02-04T02:38:51.265Z,1.16
2019-02-04T02:41:21.351Z,1.13
2019-02-04T02:43:51.192Z,0.55
2019-02-04T02:46:21.390Z,1.12
2019-02-04T02:48:51.324Z,1.08
2019-02-04T02:51:22.433Z,1.08
2019-02-04T02:53:52.349Z,1.09
2019-02-04T02:56:22.200Z,1.12
2019-02-04T02:58:52.233Z,1.14
2019-02-04T03:01:22.793Z,1.12
2019-02-04T03:03:52.831Z,1.15
2019-02-04T03:06:23.044Z,1.17
2019-02-04T03:08:52.829Z,1.18
2019-02-04T03:11:22.874Z,1.20
2019-02-04T03:13:52.672Z,1.19
2019-02-04T03:16:22.936Z,1.16
2019-02-04T03:18:53.090Z,1.13
2019-02-04T03:21:22.951Z,0.45
2019-02-04T03:23:53.385Z,1.08
2019-02-04T03:26:23.964Z,1.07
2019-02-04T03:28:53.980Z,1.08
2019-02-04T03:31:24.337Z,1.09
2019-02-04T03:33:54.304Z,1.12
2019-02-04T03:36:24.142Z,1.13
2019-02-04T03:38:54.588Z,1.10
2019-02-04T03:41:25.087Z,1.06
2019-02-04T03:43:57.218Z,0.48
2019-02-04T03:46:27.124Z,0.97
2019-02-04T03:48:57.030Z,1.06
2019-02-04T03:51:27.219Z,1.01
2019-02-04T03:53:57.402Z,1.02
2019-02-04T03:56:27.527Z,1.01
2019-02-04T03:58:57.580Z,1.02
2019-02-04T04:01:27.671Z,0.99
2019-02-04T04:03:57.608Z,0.98
2019-02-04T04:06:27.440Z,0.88
2019-02-04T04:08:57.620Z,0.94
2019-02-04T04:11:27.540Z,0.94
2019-02-04T04:13:57.818Z,0.91
2019-02-04T04:16:27.845Z,0.91
2019-02-04T04:18:57.682Z,0.96
2019-02-04T04:21:29.225Z,0.94
2019-02-04T04:23:59.306Z,0.93
2019-02-04T04:26:29.422Z,0.89
2019-02-04T04:28:59.571Z,0.85
2019-02-04T04:31:29.505Z,0.77
2019-02-04T04:33:59.713Z,0.78
2019-02-04T04:36:29.625Z,0.81
2019-02-04T04:38:59.593Z,0.80
2019-02-04T04:41:29.719Z,0.82
2019-02-04T04:43:59.617Z,0.81
2019-02-04T04:46:29.620Z,0.88
2019-02-04T04:49:00.151Z,0.88
2019-02-04T04:51:30.104Z,0.95
2019-02-04T04:53:59.883Z,0.94
2019-02-04T04:56:29.772Z,0.93
2019-02-04T04:58:59.648Z,0.89
2019-02-04T05:01:29.921Z,0.93
2019-02-04T05:04:00.791Z,0.98
2019-02-04T05:06:30.806Z,1.05
2019-02-04T05:09:02.132Z,1.08
2019-02-04T05:11:39.304Z,1.05
2019-02-04T05:14:09.891Z,1.05
2019-02-04T05:16:40.703Z,0.47
2019-02-04T05:19:10.665Z,1.05
2019-02-04T05:21:41.114Z,1.06
2019-02-04T05:24:11.224Z,0.81
2019-02-04T05:26:41.282Z,1.11
2019-02-04T05:29:11.116Z,1.22
2019-02-04T05:31:41.456Z,1.31
2019-02-04T05:34:11.374Z,1.39
2019-02-04T05:36:41.395Z,1.44
2019-02-04T05:39:11.593Z,1.48
2019-02-04T05:41:43.047Z,1.54
2019-02-04T05:44:12.946Z,1.57
2019-02-04T05:46:43.514Z,1.62
2019-02-04T05:49:13.535Z,1.69
2019-02-04T05:51:43.564Z,1.68
2019-02-04T05:54:14.105Z,1.69
2019-02-04T05:56:44.384Z,1.66
2019-02-04T05:59:14.394Z,1.75
2019-02-04T06:01:44.516Z,1.25
2019-02-04T06:04:14.439Z,1.87
2019-02-04T06:06:44.994Z,1.33
2019-02-04T06:09:14.855Z,1.91
2019-02-04T06:11:45.051Z,1.88
2019-02-04T06:14:15.466Z,1.89
2019-02-04T06:16:46.457Z,1.90
2019-02-04T06:19:16.514Z,1.99
2019-02-04T06:21:47.531Z,2.07
2019-02-04T06:24:18.790Z,2.07
2019-02-04T06:26:49.955Z,1.94
2019-02-04T06:29:20.500Z,1.35
2019-02-04T06:31:52.358Z,1.87
2019-02-04T06:36:51.923Z,1.86
2019-02-04T06:39:22.099Z,1.91
2019-02-04T06:41:52.475Z,1.98
2019-02-04T06:44:25.848Z,1.41
2019-02-04T06:46:56.158Z,1.94
2019-02-04T06:49:26.455Z,1.83
2019-02-04T06:51:56.716Z,1.73
2019-02-04T06:54:26.934Z,1.71
2019-02-04T06:56:56.920Z,1.64
2019-02-04T06:59:26.885Z,1.62
2019-02-04T07:01:57.878Z,1.60
2019-02-04T07:06:59.341Z,1.52
2019-02-04T07:09:30.138Z,1.51
2019-02-04T07:12:00.624Z,1.50
2019-02-04T07:14:31.822Z,1.50
2019-02-04T07:17:03.943Z,1.50
2019-02-04T07:19:34.749Z,0.92
2019-02-04T07:22:05.739Z,1.48
2019-02-04T07:24:42.927Z,1.46
2019-02-04T07:27:08.875Z,1.47
2019-02-04T07:29:38.803Z,1.50
2019-02-04T07:32:08.792Z,1.46
2019-02-04T07:34:39.092Z,1.45
2019-02-04T07:37:09.530Z,1.44
2019-02-04T07:39:39.772Z,1.39
2019-02-04T07:42:10.227Z,1.45
2019-02-04T07:44:40.907Z,1.47
2019-02-04T07:47:12.719Z,1.50
2019-02-04T07:49:42.807Z,1.51
2019-02-04T07:52:12.799Z,1.50
2019-02-04T07:54:43.051Z,1.51
2019-02-04T07:57:14.243Z,1.39
2019-02-04T07:59:44.481Z,1.41
2019-02-04T08:02:17.034Z,1.47
2019-02-04T08:04:48.926Z,1.58
2019-02-04T08:07:19.676Z,1.65
2019-02-04T08:09:50.213Z,1.74
2019-02-04T08:12:21.492Z,1.76
2019-02-04T08:14:51.736Z,1.78
2019-02-04T08:17:21.718Z,1.79
2019-02-04T08:19:56.851Z,1.77
2019-02-04T08:22:27.107Z,1.76
2019-02-04T08:24:57.705Z,1.87
2019-02-04T08:27:28.141Z,1.96
2019-02-04T08:29:59.861Z,2.01
2019-02-04T08:32:30.073Z,2.04
2019-02-04T08:35:00.568Z,2.14
2019-02-04T08:37:30.918Z,2.18
2019-02-04T08:40:01.925Z,2.23
2019-02-04T08:42:35.374Z,2.24
2019-02-04T08:45:05.177Z,2.25
2019-02-04T08:47:35.370Z,2.25
2019-02-04T08:50:09.697Z,2.38
2019-02-04T08:52:39.791Z,2.48
2019-02-04T08:55:10.401Z,2.58
2019-02-04T08:57:40.681Z,2.64
2019-02-04T09:00:14.473Z,2.64
2019-02-04T09:02:45.126Z,2.75
2019-02-04T09:05:16.767Z,2.85
2019-02-04T09:07:46.952Z,2.92
2019-02-04T09:10:19.943Z,2.97
2019-02-04T09:12:52.270Z,2.80
2019-02-04T09:15:22.692Z,2.88
2019-02-04T09:17:53.299Z,3.03
2019-02-04T09:20:24.783Z,3.11
2019-02-04T09:22:55.474Z,3.05
2019-02-04T09:25:26.527Z,3.22
2019-02-04T09:27:57.047Z,3.33
2019-02-04T09:30:28.420Z,2.84
2019-02-04T09:32:59.701Z,3.49
2019-02-04T09:35:29.992Z,3.52
2019-02-04T09:38:00.938Z,3.60
2019-02-04T09:40:40.494Z,3.57
2019-02-04T09:43:12.925Z,3.58
2019-02-04T09:45:45.380Z,3.68
2019-02-04T09:48:19.072Z,3.63
2019-02-04T09:50:51.704Z,3.62
2019-02-04T09:53:22.453Z,3.68
2019-02-04T09:55:52.760Z,3.75
2019-02-04T09:58:23.131Z,3.78
2019-02-04T10:00:55.455Z,3.91
2019-02-04T10:03:27.579Z,3.96
2019-02-04T10:06:01.500Z,4.00
2019-02-04T10:08:32.908Z,4.06
2019-02-04T10:11:02.972Z,4.18
2019-02-04T10:13:36.136Z,4.29
2019-02-04T10:16:07.855Z,4.42
2019-02-04T10:18:38.318Z,4.56
2019-02-04T10:21:10.582Z,4.66
2019-02-04T10:23:40.519Z,4.72
2019-02-04T10:26:12.313Z,4.87
2019-02-04T10:28:42.813Z,4.99
2019-02-04T10:31:13.231Z,5.11
2019-02-04T10:33:43.813Z,5.21
2019-02-04T10:36:15.680Z,5.26
2019-02-04T10:38:47.013Z,5.36
2019-02-04T10:41:17.432Z,5.40
2019-02-04T10:43:47.520Z,5.39
2019-02-04T10:46:18.226Z,5.51
2019-02-04T10:48:48.762Z,5.64
2019-02-04T10:51:19.309Z,5.83
2019-02-04T10:53:50.128Z,5.96
2019-02-04T10:56:23.780Z,6.04
2019-02-04T10:58:58.664Z,6.20
2019-02-04T11:01:30.209Z,6.29
2019-02-04T11:04:00.718Z,6.32
2019-02-04T11:06:31.156Z,6.28
2019-02-04T11:09:09.292Z,6.37
2019-02-04T11:11:40.709Z,6.36
2019-02-04T11:14:11.249Z,6.48
2019-02-04T11:16:43.670Z,6.53
2019-02-04T11:19:18.424Z,6.58
2019-02-04T11:21:48.419Z,6.46
2019-02-04T11:24:19.116Z,6.67
2019-02-04T11:26:49.031Z,6.73
2019-02-04T11:29:22.283Z,6.73
2019-02-04T11:31:52.927Z,6.82
2019-02-04T11:34:23.271Z,6.96
2019-02-04T11:36:54.119Z,7.02
2019-02-04T11:39:24.991Z,7.02
2019-02-04T11:41:58.610Z,7.04
2019-02-04T11:44:30.310Z,7.10
2019-02-04T11:47:02.409Z,7.21
2019-02-04T11:49:33.801Z,7.19
2019-02-04T11:52:06.928Z,7.19
2019-02-04T11:54:38.496Z,7.45
2019-02-04T11:57:08.794Z,7.45
2019-02-04T11:59:39.890Z,7.28
2019-02-04T12:02:11.027Z,7.28
2019-02-04T12:04:41.422Z,7.34
2019-02-04T12:07:12.122Z,7.34
2019-02-04T12:09:42.194Z,7.53
2019-02-04T12:12:13.082Z,7.53
2019-02-04T12:14:43.450Z,7.62
2019-02-04T12:17:13.604Z,7.57
2019-02-04T12:19:44.090Z,7.57
2019-02-04T12:22:14.993Z,7.69
2019-02-04T12:24:53.033Z,7.70
2019-02-04T12:27:31.900Z,7.76
2019-02-04T12:29:57.553Z,7.76
2019-02-04T12:32:29.175Z,7.83
2019-02-04T12:35:00.371Z,7.86
2019-02-04T12:37:32.501Z,7.80
2019-02-04T12:40:05.838Z,7.62
2019-02-04T12:42:36.574Z,7.47
2019-02-04T12:45:09.639Z,7.58
2019-02-04T12:47:40.031Z,7.65
2019-02-04T12:50:10.794Z,7.66
2019-02-04T12:52:40.914Z,7.49
2019-02-04T12:55:13.807Z,7.65
2019-02-04T12:57:44.415Z,7.80
2019-02-04T13:00:17.893Z,7.85
2019-02-04T13:02:48.705Z,8.00
2019-02-04T13:05:37.875Z,7.87
2019-02-04T13:08:10.001Z,8.12
2019-02-04T13:10:40.896Z,8.19
2019-02-04T13:13:14.179Z,8.17
2019-02-04T13:15:44.609Z,8.12
2019-02-04T13:18:16.039Z,8.04
2019-02-04T13:20:48.258Z,8.07
2019-02-04T13:23:21.321Z,8.17
2019-02-04T13:25:54.321Z,8.11
2019-02-04T13:28:36.688Z,8.08
2019-02-04T13:31:07.110Z,8.20
2019-02-04T13:33:39.190Z,8.02
2019-02-04T13:36:13.111Z,7.93
2019-02-04T13:38:44.497Z,7.91
2019-02-04T13:41:15.142Z,7.84
2019-02-04T13:43:47.559Z,7.69
2019-02-04T13:46:17.831Z,7.72
2019-02-04T13:48:48.848Z,7.73
2019-02-04T13:51:19.023Z,7.78
2019-02-04T13:53:49.130Z,7.90
2019-02-04T13:56:20.521Z,7.79
2019-02-04T13:58:51.424Z,7.52
2019-02-04T14:01:22.112Z,7.41
2019-02-04T14:03:52.358Z,7.57
2019-02-04T14:06:22.625Z,7.46
2019-02-04T14:08:53.083Z,7.54
2019-02-04T14:11:26.670Z,7.50
2019-02-04T14:13:57.220Z,7.28
2019-02-04T14:16:31.642Z,7.23
2019-02-04T14:19:06.603Z,7.32
2019-02-04T14:21:39.617Z,7.32
2019-02-04T14:24:10.242Z,7.33
2019-02-04T14:26:44.787Z,7.18
2019-02-04T14:29:26.620Z,7.18
2019-02-04T14:31:56.919Z,7.09
2019-02-04T14:34:34.691Z,7.09
2019-02-04T14:37:06.311Z,6.54
2019-02-04T14:39:36.872Z,7.02
2019-02-04T14:42:11.174Z,7.08
2019-02-04T14:44:55.835Z,7.08
2019-02-04T14:47:34.328Z,7.09
2019-02-04T14:51:00.827Z,7.06
2019-02-04T14:53:54.404Z,6.66
2019-02-04T14:57:07.422Z,6.66
2019-02-04T15:00:04.566Z,7.19
2019-02-04T15:02:51.450Z,7.19
2019-02-04T15:05:35.060Z,6.99
2019-02-04T15:08:37.600Z,6.99
2019-02-04T15:11:35.244Z,7.01
2019-02-04T15:14:41.133Z,7.02
2019-02-04T15:17:24.800Z,7.02
2019-02-04T15:20:21.052Z,7.02
2019-02-04T15:23:26.400Z,6.89
2019-02-04T15:26:44.870Z,6.89
2019-02-04T15:29:20.349Z,6.68
2019-02-04T15:32:23.104Z,6.51
2019-02-04T15:35:33.744Z,6.39
2019-02-04T15:38:25.549Z,6.29
2019-02-04T15:41:10.142Z,6.03
2019-02-04T15:44:42.906Z,5.88
2019-02-04T15:47:28.864Z,5.77
2019-02-04T15:50:14.927Z,5.71
2019-02-04T15:52:48.858Z,5.71
2019-02-04T15:55:23.286Z,5.67
2019-02-04T15:57:54.500Z,5.63
2019-02-04T16:00:25.424Z,5.57
2019-02-04T16:02:56.558Z,5.48
2019-02-04T16:05:29.135Z,5.39
2019-02-04T16:07:59.412Z,5.34
2019-02-04T16:10:39.537Z,5.27
2019-02-04T16:13:15.998Z,5.19
2019-02-04T16:15:47.944Z,4.56
2019-02-04T16:18:24.853Z,4.98
2019-02-04T16:21:03.264Z,4.89
2019-02-04T16:23:40.271Z,4.85
2019-02-04T16:26:15.131Z,4.77
2019-02-04T16:28:45.642Z,4.71
2019-02-04T16:31:21.843Z,4.73
2019-02-04T16:33:55.160Z,4.70
2019-02-04T16:36:27.243Z,4.68
2019-02-04T16:39:02.124Z,4.59
2019-02-04T16:41:59.637Z,4.59
2019-02-04T16:44:40.593Z,4.60
2019-02-04T16:47:15.642Z,4.59
2019-02-04T16:49:46.653Z,4.55
2019-02-04T16:52:17.582Z,4.54
2019-02-04T16:54:49.779Z,4.51
2019-02-04T16:57:20.886Z,4.49
2019-02-04T16:59:56.484Z,4.46
2019-02-04T17:02:29.830Z,4.45
2019-02-04T17:05:00.928Z,4.42
2019-02-04T17:07:35.127Z,4.40
2019-02-04T17:10:10.142Z,4.45
2019-02-04T17:12:43.339Z,4.43
2019-02-04T17:15:16.441Z,4.42
2019-02-04T17:17:57.835Z,4.42
2019-02-04T17:20:38.261Z,3.56
2019-02-04T17:23:22.501Z,4.42
2019-02-04T17:26:39.961Z,4.42
2019-02-04T17:29:12.286Z,4.42
2019-02-04T17:31:43.122Z,4.43
2019-02-04T17:34:15.288Z,4.41
2019-02-04T17:37:11.768Z,4.41
2019-02-04T17:39:47.706Z,4.44
2019-02-04T17:42:22.519Z,4.47
2019-02-04T17:45:04.340Z,4.48
2019-02-04T17:48:08.231Z,4.48
2019-02-04T17:50:39.281Z,4.53
2019-02-04T17:53:20.012Z,4.57
2019-02-04T17:55:53.832Z,4.61
2019-02-04T17:58:33.955Z,4.62
2019-02-04T18:01:07.669Z,4.64
2019-02-04T18:03:43.465Z,4.67
2019-02-04T18:06:21.404Z,4.66
2019-02-04T18:08:52.915Z,4.65
2019-02-04T18:11:25.758Z,4.60
2019-02-04T18:13:56.287Z,4.63
2019-02-04T18:16:26.594Z,4.68
2019-02-04T18:18:56.814Z,4.72
2019-02-04T18:21:26.898Z,4.75
2019-02-04T18:23:57.776Z,4.76
2019-02-04T18:26:29.497Z,4.72
2019-02-04T18:29:00.567Z,4.72
2019-02-04T18:31:34.120Z,4.71
2019-02-04T18:34:05.830Z,4.62
2019-02-04T18:36:39.863Z,4.61
2019-02-04T18:39:14.908Z,4.62
2019-02-04T18:41:50.337Z,4.62
2019-02-04T18:44:21.845Z,4.61
2019-02-04T18:46:54.540Z,4.60
2019-02-04T18:49:27.074Z,4.57
2019-02-04T18:52:00.580Z,4.57
2019-02-04T18:54:32.704Z,4.58
2019-02-04T18:57:05.317Z,4.59
2019-02-04T18:59:36.232Z,4.55
2019-02-04T19:02:09.957Z,4.53
2019-02-04T19:04:45.238Z,4.50
2019-02-04T19:07:17.778Z,4.44
2019-02-04T19:09:49.554Z,4.35
2019-02-04T19:12:24.285Z,4.35
2019-02-04T19:15:00.292Z,4.31
2019-02-04T19:17:31.421Z,4.30
2019-02-04T19:20:02.478Z,4.34
2019-02-04T19:22:36.478Z,4.35
2019-02-04T19:25:13.973Z,4.33
2019-02-04T19:27:50.016Z,4.30
2019-02-04T19:30:47.321Z,4.31
2019-02-04T19:33:22.104Z,4.33
2019-02-04T19:35:58.106Z,4.35
2019-02-04T19:38:39.186Z,4.35
2019-02-04T19:41:23.889Z,4.32
2019-02-04T19:44:05.964Z,4.32
2019-02-04T19:46:43.173Z,4.28
2019-02-04T19:49:22.351Z,4.31
2019-02-04T19:52:06.687Z,4.28
2019-02-04T19:54:39.525Z,4.24
2019-02-04T19:57:10.955Z,4.21
2019-02-04T19:59:48.537Z,4.20
2019-02-04T20:02:21.430Z,4.19
2019-02-04T20:04:55.913Z,4.18
2019-02-04T20:07:32.374Z,4.21
2019-02-04T20:10:05.664Z,4.24
2019-02-04T20:12:39.961Z,4.24
2019-02-04T20:15:21.587Z,3.68
2019-02-04T20:17:54.749Z,4.31
2019-02-04T20:20:31.502Z,4.32
2019-02-04T20:23:07.076Z,4.37
2019-02-04T20:25:37.348Z,4.46
2019-02-04T20:28:42.103Z,4.46
2019-02-04T20:31:23.644Z,3.91
2019-02-04T20:34:05.719Z,4.38
2019-02-04T20:36:38.081Z,4.42
2019-02-04T20:39:17.073Z,4.41
2019-02-04T20:41:51.462Z,4.36
2019-02-04T20:44:25.074Z,4.34
2019-02-04T20:47:05.612Z,4.34
2019-02-04T20:49:43.357Z,4.35
2019-02-04T20:55:56.606Z,4.34
2019-02-04T20:58:27.260Z,4.32
2019-02-04T21:01:09.918Z,4.21
2019-02-04T21:03:42.191Z,4.13
2019-02-04T21:06:13.187Z,4.01
2019-02-04T21:08:46.011Z,4.00
2019-02-04T21:11:16.801Z,3.98
2019-02-04T21:13:52.450Z,3.91
2019-02-04T21:16:23.640Z,3.86
2019-02-04T21:18:55.962Z,3.83
2019-02-04T21:21:27.792Z,3.86
2019-02-04T21:23:59.560Z,3.94
2019-02-04T21:26:40.749Z,3.93
2019-02-04T21:29:11.076Z,3.88
2019-02-04T21:31:41.036Z,3.84
2019-02-04T21:34:11.196Z,3.82
2019-02-04T21:36:46.961Z,3.82
2019-02-04T21:39:17.253Z,3.37
2019-02-04T21:41:47.290Z,4.01
2019-02-04T21:44:18.563Z,4.07
2019-02-04T21:46:48.518Z,4.05
2019-02-04T21:49:18.921Z,4.03
2019-02-04T21:51:49.285Z,4.03
2019-02-04T21:54:19.525Z,3.97
2019-02-04T21:56:49.874Z,3.94
2019-02-04T21:59:20.813Z,3.91
2019-02-04T22:01:51.499Z,3.81
2019-02-04T22:04:21.803Z,3.73
2019-02-04T22:06:52.300Z,3.67
2019-02-04T22:09:23.437Z,3.68
2019-02-04T22:11:54.684Z,3.66
2019-02-04T22:14:37.597Z,3.57
2019-02-04T22:17:08.851Z,3.55
2019-02-04T22:19:38.800Z,3.49
2019-02-04T22:22:09.403Z,3.48
2019-02-04T22:24:39.441Z,3.44
2019-02-04T22:27:09.550Z,3.43
2019-02-04T22:29:40.138Z,3.43
2019-02-04T22:32:12.934Z,3.44
2019-02-04T22:34:45.627Z,3.48
2019-02-04T22:37:15.018Z,3.44
2019-02-04T22:39:45.143Z,3.42
2019-02-04T22:42:15.968Z,3.47
2019-02-04T22:44:46.949Z,3.45
2019-02-04T22:47:17.935Z,3.52
2019-02-04T22:49:48.623Z,3.42
2019-02-04T22:52:18.944Z,3.48
2019-02-04T22:54:49.181Z,3.54
2019-02-04T22:57:20.383Z,3.55
2019-02-04T22:59:50.692Z,3.53
2019-02-04T23:02:26.360Z,3.46
2019-02-04T23:04:57.068Z,3.60
2019-02-04T23:07:27.522Z,3.64
2019-02-04T23:09:58.063Z,3.68
2019-02-04T23:12:29.534Z,3.64
2019-02-04T23:15:01.144Z,3.64
2019-02-04T23:17:34.215Z,3.66
2019-02-04T23:20:09.174Z,3.63
2019-02-04T23:22:44.119Z,3.62
2019-02-04T23:25:14.408Z,3.69
2019-02-04T23:27:44.513Z,3.67
2019-02-04T23:30:15.038Z,3.65
2019-02-04T23:32:45.881Z,3.25
2019-02-04T23:35:16.212Z,3.74
2019-02-04T23:37:46.466Z,3.80
2019-02-04T23:40:18.352Z,3.80
2019-02-04T23:42:48.864Z,3.81
2019-02-04T23:45:19.242Z,3.84
2019-02-04T23:47:49.610Z,3.89
2019-02-04T23:50:20.160Z,3.92
2019-02-04T23:52:50.555Z,3.92
2019-02-04T23:55:21.054Z,3.90
2019-02-04T23:57:51.183Z,3.88
